createdAt,value
2023-03-02T00:03:48.198Z,68.13
2023-03-02T00:09:16.398Z,68.57
2023-03-02T00:14:44.786Z,70.13
2023-03-02T00:20:12.769Z,67.93
2023-03-02T00:25:40.577Z,69.43
2023-03-02T00:31:09.001Z,71.18
2023-03-02T00:36:35.932Z,72.68
2023-03-02T00:42:03.049Z,73.35
2023-03-02T00:47:30.200Z,72.00
2023-03-02T00:52:57.335Z,76.80
2023-03-02T00:58:26.798Z,76.00
2023-03-02T01:03:55.416Z,79.93
2023-03-02T01:09:23.356Z,75.85
2023-03-02T01:14:51.677Z,73.53
2023-03-02T01:20:19.448Z,75.90
2023-03-02T01:25:47.314Z,84.68
2023-03-02T01:31:15.487Z,87.97
2023-03-02T01:36:46.467Z,84.25
2023-03-02T01:42:14.543Z,86.60
2023-03-02T01:47:42.124Z,89.75
2023-03-02T01:53:16.860Z,90.57
2023-03-02T01:58:48.083Z,83.50
2023-03-02T02:04:15.494Z,85.35
2023-03-02T02:09:47.611Z,80.68
2023-03-02T02:15:15.460Z,81.40
2023-03-02T02:20:49.076Z,84.10
2023-03-02T02:26:45.628Z,82.25
2023-03-02T02:32:15.873Z,80.22
2023-03-02T02:37:47.702Z,82.43
2023-03-02T02:43:22.011Z,77.85
2023-03-02T02:48:49.009Z,85.10
2023-03-02T02:54:18.992Z,90.78
2023-03-02T02:59:52.997Z,89.32
2023-03-02T03:05:20.677Z,84.47
2023-03-02T03:10:48.609Z,84.60
2023-03-02T03:16:18.466Z,84.47
2023-03-02T03:21:49.546Z,85.68
2023-03-02T03:27:17.532Z,79.35
2023-03-02T03:32:45.576Z,79.85
2023-03-02T03:38:14.584Z,84.63
2023-03-02T03:43:43.459Z,82.80
2023-03-02T03:49:11.636Z,82.18
2023-03-02T03:54:39.589Z,78.22
2023-03-02T04:00:10.801Z,81.82
2023-03-02T04:05:52.146Z,81.82
2023-03-02T04:11:19.221Z,81.40
2023-03-02T04:16:46.896Z,76.55
2023-03-02T04:22:15.543Z,71.18
2023-03-02T04:27:42.674Z,68.95
2023-03-02T04:33:10.495Z,73.43
2023-03-02T04:38:38.518Z,69.70
2023-03-02T04:44:05.770Z,78.15
2023-03-02T04:49:32.509Z,81.97
2023-03-02T04:54:59.962Z,81.85
2023-03-02T05:00:45.830Z,82.13
2023-03-02T05:06:14.472Z,80.90
2023-03-02T05:11:41.979Z,84.70
2023-03-02T05:17:09.642Z,84.43
2023-03-02T05:22:36.572Z,97.88
2023-03-02T05:28:04.939Z,94.03
2023-03-02T05:33:33.142Z,104.28
2023-03-02T05:39:00.997Z,102.32
2023-03-02T05:44:28.728Z,101.05
2023-03-02T05:49:56.044Z,105.13
2023-03-02T05:55:24.107Z,89.28
2023-03-02T06:01:01.419Z,81.75
2023-03-02T06:06:29.186Z,96.65
2023-03-02T06:11:56.457Z,97.43
2023-03-02T06:17:23.738Z,93.03
2023-03-02T06:22:51.125Z,88.20
2023-03-02T06:28:22.403Z,101.35
2023-03-02T06:33:50.210Z,97.63
2023-03-02T06:39:17.774Z,94.35
2023-03-02T06:44:44.629Z,90.97
2023-03-02T06:50:12.383Z,87.53
2023-03-02T06:55:39.957Z,91.15
2023-03-02T07:01:08.321Z,92.45
2023-03-02T07:06:36.174Z,93.45
2023-03-02T07:12:04.411Z,89.70
2023-03-02T07:17:31.982Z,93.85
2023-03-02T07:22:59.193Z,91.50
2023-03-02T07:28:27.630Z,90.07
2023-03-02T07:33:54.961Z,91.35
2023-03-02T07:39:22.198Z,90.95
2023-03-02T07:44:49.426Z,92.18
2023-03-02T07:50:17.040Z,88.63
2023-03-02T07:55:44.334Z,90.25
2023-03-02T08:01:12.464Z,93.85
2023-03-02T08:06:42.466Z,100.07
2023-03-02T08:12:10.147Z,95.78
2023-03-02T08:17:37.015Z,91.05
2023-03-02T08:23:04.316Z,95.75
2023-03-02T08:28:31.163Z,90.32
2023-03-02T08:33:59.828Z,89.78
2023-03-02T08:39:30.495Z,94.50
2023-03-02T08:44:58.127Z,85.10
2023-03-02T08:50:25.344Z,69.13
2023-03-02T08:55:53.624Z,67.85
2023-03-02T09:01:28.919Z,72.30
2023-03-02T09:06:56.484Z,73.10
2023-03-02T09:12:24.312Z,66.13
2023-03-02T09:17:51.464Z,54.38
2023-03-02T09:23:20.827Z,48.78
2023-03-02T09:28:48.726Z,46.65
2023-03-02T09:34:16.418Z,40.17
2023-03-02T09:39:43.551Z,39.47
2023-03-02T09:45:23.788Z,38.10
2023-03-02T09:51:01.510Z,36.97
2023-03-02T09:56:28.802Z,37.55
2023-03-02T10:02:01.543Z,40.03
2023-03-02T10:07:38.405Z,36.35
2023-03-02T10:13:47.707Z,29.70
2023-03-02T10:19:18.434Z,26.33
2023-03-02T10:25:08.535Z,21.13
2023-03-02T10:30:38.209Z,23.90
2023-03-02T10:36:21.368Z,29.77
2023-03-02T10:41:56.341Z,25.33
2023-03-02T10:47:29.388Z,28.52
2023-03-02T10:53:01.570Z,25.42
2023-03-02T10:58:33.505Z,22.95
2023-03-02T11:04:02.393Z,25.27
2023-03-02T11:09:29.704Z,25.63
2023-03-02T11:15:27.234Z,27.02
2023-03-02T11:21:21.081Z,28.80
2023-03-02T11:26:59.826Z,30.33
2023-03-02T11:32:51.802Z,31.05
2023-03-02T11:38:28.798Z,26.85
2023-03-02T11:44:02.097Z,26.98
2023-03-02T11:49:57.428Z,30.55
2023-03-02T11:55:27.936Z,31.95
2023-03-02T12:00:57.205Z,32.70
2023-03-02T12:06:29.416Z,33.70
2023-03-02T12:12:26.276Z,34.25
2023-03-02T12:17:54.031Z,34.72
2023-03-02T12:23:27.174Z,32.95
2023-03-02T12:29:09.682Z,34.07
2023-03-02T12:34:42.110Z,34.33
2023-03-02T12:40:43.685Z,33.30
2023-03-02T12:46:11.149Z,34.88
2023-03-02T12:51:50.551Z,34.10
2023-03-02T12:57:20.632Z,35.25
2023-03-02T13:02:52.802Z,35.97
2023-03-02T13:08:25.803Z,34.85
2023-03-02T13:13:53.505Z,34.47
2023-03-02T13:19:20.989Z,30.95
2023-03-02T13:25:06.369Z,30.15
2023-03-02T13:30:37.730Z,28.48
2023-03-02T13:36:06.505Z,31.48
2023-03-02T13:41:36.897Z,23.63
2023-03-02T13:47:04.213Z,22.63
2023-03-02T13:52:32.647Z,19.23
2023-03-02T13:58:01.295Z,22.73
2023-03-02T14:03:31.205Z,22.08
2023-03-02T14:08:58.268Z,21.63
2023-03-02T14:14:29.514Z,23.65
2023-03-02T14:19:57.294Z,19.65
2023-03-02T14:25:25.518Z,19.20
2023-03-02T14:30:55.909Z,16.33
2023-03-02T14:36:33.613Z,15.75
2023-03-02T14:42:01.185Z,14.75
2023-03-02T14:47:28.301Z,19.40
2023-03-02T14:52:58.287Z,17.88
2023-03-02T14:58:32.905Z,16.23
2023-03-02T15:04:00.267Z,18.20
2023-03-02T15:09:28.310Z,17.55
2023-03-02T15:14:55.237Z,18.10
2023-03-02T15:20:22.788Z,16.23
2023-03-02T15:25:50.516Z,15.50
2023-03-02T15:31:19.101Z,15.70
2023-03-02T15:36:46.440Z,12.30
2023-03-02T15:42:14.392Z,11.13
2023-03-02T15:47:41.756Z,11.38
2023-03-02T15:53:09.328Z,11.52
2023-03-02T15:58:36.293Z,12.30
2023-03-02T16:04:04.337Z,13.65
2023-03-02T16:09:31.716Z,14.57
2023-03-02T16:14:59.858Z,14.40
2023-03-02T16:20:28.052Z,14.57
2023-03-02T16:25:55.442Z,16.23
2023-03-02T16:31:27.095Z,19.20
2023-03-02T16:36:55.343Z,34.83
2023-03-02T16:42:22.135Z,47.28
2023-03-02T16:47:51.667Z,44.75
2023-03-02T16:53:20.457Z,50.35
2023-03-02T16:58:47.829Z,50.20
2023-03-02T17:04:18.629Z,44.85
2023-03-02T17:09:45.955Z,43.90
2023-03-02T17:15:14.545Z,44.90
2023-03-02T17:20:41.566Z,44.97
2023-03-02T17:26:08.882Z,42.30
2023-03-02T17:31:36.866Z,30.25
2023-03-02T17:37:05.359Z,39.15
2023-03-02T17:42:33.024Z,29.65
2023-03-02T17:48:01.699Z,41.50
2023-03-02T17:53:29.040Z,33.97
2023-03-02T17:59:00.750Z,41.83
2023-03-02T18:04:28.174Z,37.72
2023-03-02T18:09:55.980Z,39.83
2023-03-02T18:15:24.788Z,46.75
2023-03-02T18:20:51.898Z,43.05
2023-03-02T18:26:19.966Z,43.50
2023-03-02T18:31:48.667Z,47.63
2023-03-02T18:37:19.082Z,37.88
2023-03-02T18:42:48.576Z,48.05
2023-03-02T18:48:18.974Z,51.47
2023-03-02T18:53:49.330Z,46.83
2023-03-02T18:59:18.155Z,57.05
2023-03-02T19:04:48.650Z,57.53
2023-03-02T19:10:16.712Z,48.72
2023-03-02T19:15:44.240Z,57.15
2023-03-02T19:21:12.672Z,45.88
2023-03-02T19:26:40.816Z,47.80
2023-03-02T19:32:08.726Z,53.95
2023-03-02T19:37:37.513Z,49.10
2023-03-02T19:43:05.511Z,36.38
2023-03-02T19:48:35.875Z,47.42
2023-03-02T19:54:04.199Z,40.75
2023-03-02T19:59:32.839Z,46.17
2023-03-02T20:05:01.967Z,55.00
2023-03-02T20:10:36.258Z,41.08
2023-03-02T20:21:33.506Z,51.20
2023-03-02T20:27:02.532Z,32.28
2023-03-02T20:32:30.286Z,52.25
2023-03-02T20:37:59.494Z,45.53
2023-03-02T20:43:27.663Z,59.97
2023-03-02T20:48:55.849Z,59.17
2023-03-02T20:54:26.216Z,51.15
2023-03-02T20:59:54.587Z,59.55
2023-03-02T21:05:24.277Z,64.32
2023-03-02T21:10:52.439Z,67.75
2023-03-02T21:16:38.996Z,66.30
2023-03-02T21:22:09.832Z,55.95
2023-03-02T21:27:41.204Z,62.15
2023-03-02T21:33:09.910Z,65.32
2023-03-02T21:38:40.547Z,72.80
2023-03-02T21:44:10.003Z,67.25
2023-03-02T21:49:37.158Z,70.63
2023-03-02T21:55:04.646Z,65.25
2023-03-02T22:00:36.134Z,64.05
2023-03-02T22:06:03.798Z,64.60
2023-03-02T22:11:35.496Z,67.40
2023-03-02T22:17:16.583Z,69.85
2023-03-02T22:22:45.286Z,63.05
2023-03-02T22:28:18.637Z,66.85
2023-03-02T22:33:46.752Z,63.65
2023-03-02T22:39:27.832Z,65.43
2023-03-02T22:45:17.131Z,63.00
2023-03-02T22:50:48.666Z,60.15
2023-03-02T22:56:37.627Z,61.15
2023-03-02T23:02:17.875Z,57.20
2023-03-02T23:07:45.554Z,56.72
2023-03-02T23:13:14.962Z,56.53
2023-03-02T23:18:44.168Z,54.55
2023-03-02T23:24:11.714Z,55.33
2023-03-02T23:29:41.109Z,60.08
2023-03-02T23:35:08.716Z,59.10
2023-03-02T23:40:37.097Z,58.20
2023-03-02T23:46:04.854Z,56.63
2023-03-02T23:51:33.432Z,54.72
2023-03-02T23:57:00.740Z,48.70
